Flight Track Log - Related Links

Times and Time Zones

All times are in EDT time to prevent confusion due to time zone crossing. See the RPA3247 flight status page for this flight to view local times or setup timezone preferences in your user account.

Time Position Orientation Groundspeed Altitude Reporting Facility
EDT Latitude Longitude Course Direction KTS MPH feet Rate Location/Type
Fri 05:38:29 PM 42.7503 -73.8283 120° Southeast 146 168 1,400  Level Boston Center
Fri 05:38:59 PM 42.7500 -73.8539 269° West 150 173 2,100 2,110 Climbing Boston Center
Fri 05:40:00 PM 42.7867 -73.9169 308° West 223 257 4,600 2,814 Climbing Boston Center
Fri 05:40:52 PM 42.8300 -73.9689 319° Northwest 242 278 7,400 3,375 Climbing Boston Center
Fri 05:41:00 PM 42.4599 -74.0584 171° South  Level Estimated
Fri 05:41:52 PM 42.8600 -74.0517 296° West 240 276 10,900  Level Boston Center
Fri 05:42:00 PM 42.3876 -74.1221 170° South  Level Estimated
Fri 05:42:52 PM 42.8544 -74.1450 265° West 251 289 13,800  Level Boston Center
Fri 05:43:00 PM 42.3445 -74.0209 120° Southeast  Level FlightAware Approximate
Fri 05:43:52 PM 42.8175 -74.2431 243° Southwest 273 314 16,900  Level Boston Center
Fri 05:44:52 PM 42.7367 -74.2153 166° South 259 298 18,800 2,200 Climbing Boston Center
Fri 05:45:52 PM 42.6356 -74.1531 156° South 326 375 21,300 2,250 Climbing Boston Center
Fri 05:46:52 PM 42.5425 -74.0942 155° Southeast 338 389 23,300 2,050 Climbing Boston Center
Fri 05:47:52 PM 42.4456 -74.0297 154° Southeast 368 423 25,400 2,000 Climbing Boston Center
Fri 05:48:52 PM 42.3422 -73.9681 156° South 390 449 27,300 1,300 Climbing Boston Center
Fri 05:49:52 PM 42.2617 -73.9128 153° Southeast 401 461 28,000 350 Climbing Boston Center
Fri 05:50:52 PM 42.1375 -73.8372 156° South 401 461 28,000  Level Boston Center
Fri 05:51:52 PM 42.0569 -73.7850 154° Southeast 401 461 28,000  Level Boston Center
Fri 05:52:52 PM 41.9383 -73.7742 176° South 393 452 28,000  Level Boston Center
Fri 05:55:04 PM 41.7264 -73.8839 201° Southwest 369 425 28,000  Level New York Center
Fri 05:56:04 PM 41.6336 -73.9381 204° Southwest 375 432 28,000  Level New York Center
Fri 05:57:05 PM 41.5300 -73.9967 203° Southwest 375 432 28,000  Level New York Center
Fri 05:58:05 PM 41.4347 -74.0503 203° Southwest 375 432 28,000  Level New York Center
Fri 05:59:06 PM 41.3353 -74.1033 202° Southwest 380 437 28,000  Level New York Center
Fri 06:00:04 PM 41.2400 -74.1567 203° Southwest 380 437 28,000  Level New York Center
Fri 06:01:04 PM 41.1514 -74.1989 200° South 380 437 28,000  Level New York Center
Fri 06:02:05 PM 41.0561 -74.2547 204° Southwest 380 437 28,000  Level New York Center
Fri 06:03:05 PM 40.9586 -74.3072 202° Southwest 380 437 28,000  Level New York Center
Fri 06:04:06 PM 40.8614 -74.3600 202° Southwest 380 437 28,000  Level New York Center
Fri 06:05:04 PM 40.7758 -74.4267 211° Southwest 375 432 28,000  Level New York Center
Fri 06:06:05 PM 40.7144 -74.5275 231° Southwest 366 421 28,000  Level New York Center
Fri 06:07:05 PM 40.6528 -74.6278 231° Southwest 360 414 28,000  Level New York Center
Fri 06:08:06 PM 40.5889 -74.7281 230° Southwest 360 414 28,000  Level New York Center
Fri 06:09:04 PM 40.5233 -74.8253 228° Southwest 360 414 28,000  Level New York Center
Fri 06:10:04 PM 40.4550 -74.9250 228° Southwest 366 421 28,000  Level New York Center
Fri 06:11:05 PM 40.3872 -75.0192 227° Southwest 366 421 28,000 -492 Level New York Center
Fri 06:12:06 PM 40.3211 -75.1131 227° Southwest 366 421 27,000 -1,450 Descending New York Center
Fri 06:13:05 PM 40.2553 -75.2067 227° Southwest 361 415 25,100 -1,850 Descending New York Center
Fri 06:14:06 PM 40.1892 -75.2978 226° Southwest 356 410 23,300 -1,537 Descending New York Center
Fri 06:15:06 PM 40.1253 -75.3858 227° Southwest 351 404 22,000 -655 Descending New York Center
Fri 06:16:05 PM 40.0636 -75.4739 228° Southwest 345 397 22,000  Level New York Center
Fri 06:17:06 PM 39.9994 -75.5617 226° Southwest 339 390 22,000  Level New York Center
Fri 06:18:04 PM 39.9356 -75.6467 226° Southwest 334 384 22,000  Level New York Center
Fri 06:19:05 PM 39.8794 -75.7403 232° Southwest 334 384 22,000  Level New York Center
Fri 06:20:06 PM 39.8194 -75.8306 229° Southwest 334 384 22,000 -295 Level New York Center
Fri 06:21:07 PM 39.7633 -75.9236 232° Southwest 329 379 21,400 -1,169 Descending New York Center
Fri 06:22:04 PM 39.7072 -76.0114 230° Southwest 329 379 19,700 -1,729 Descending New York Center
Fri 06:23:05 PM 39.6558 -76.0911 230° Southwest 310 357 18,000 -1,587 Descending New York Center
Fri 06:24:05 PM 39.6039 -76.1789 232° Southwest 310 357 16,500 -1,525 Descending New York Center
Fri 06:25:07 PM 39.5522 -76.2583 230° Southwest 304 350 14,900 -1,631 Descending New York Center
Fri 06:25:48 PM 39.5167 -76.3167 232° Southwest 286 329 13,700 -1,604 Descending Potomac TRACON
Fri 06:26:48 PM 39.4667 -76.4000 232° Southwest 281 323 12,200 -850 Descending Potomac TRACON
Fri 06:27:48 PM 39.4000 -76.4667 218° Southwest 286 329 12,000 -100 Descending Potomac TRACON
Fri 06:28:48 PM 39.3333 -76.5167 210° Southwest 286 329 12,000 -500 Level Potomac TRACON
Fri 06:29:48 PM 39.2667 -76.5833 218° Southwest 285 328 11,000 -1,000 Descending Potomac TRACON
Fri 06:30:42 PM 39.2000 -76.6333 210° Southwest 282 325 10,100 -500 Descending Potomac TRACON
Fri 06:31:48 PM 39.1333 -76.7000 218° Southwest 278 320 10,000 -48 Descending Potomac TRACON
Fri 06:32:48 PM 39.0833 -76.7667 226° Southwest 279 321 10,000 -887 Level Potomac TRACON
Fri 06:33:43 PM 39.0333 -76.8333 226° Southwest 275 316 8,300 -1,774 Descending Potomac TRACON
Fri 06:34:43 PM 38.9667 -76.9000 218° Southwest 268 308 6,600 -1,150 Descending Potomac TRACON
Fri 06:35:43 PM 38.9167 -76.9500 218° Southwest 260 299 6,000 -619 Descending Potomac TRACON
Fri 06:36:49 PM 38.8333 -76.9500 180° South 269 310 5,300 -905 Descending Potomac TRACON
Fri 06:37:49 PM 38.7667 -76.9500 180° South 243 280 4,100 -1,091 Descending Potomac TRACON
Fri 06:38:50 PM 38.7167 -76.9667 195° South 224 258 3,100 -984 Descending Potomac TRACON

Login

Don't have an account? Register now (free) for customized features, flight alerts, and more!